createdAt,value
2022-08-09T00:00:11.361Z,13.00
2022-08-09T00:02:42.948Z,12.70
2022-08-09T00:06:18.832Z,12.50
2022-08-09T00:08:02.882Z,12.50
2022-08-09T00:10:29.745Z,12.40
2022-08-09T00:12:57.213Z,12.40
2022-08-09T00:15:35.286Z,12.30
2022-08-09T00:18:12.526Z,12.30
2022-08-09T00:20:48.343Z,12.40
2022-08-09T00:23:55.409Z,12.40
2022-08-09T00:26:06.273Z,12.10
2022-08-09T00:28:34.566Z,11.90
2022-08-09T00:31:50.391Z,11.90
2022-08-09T00:33:51.903Z,11.80
2022-08-09T00:36:19.808Z,11.80
2022-08-09T00:38:46.795Z,11.70
2022-08-09T00:44:10.786Z,11.50
2022-08-09T00:44:14.341Z,11.60
2022-08-09T00:46:56.914Z,11.80
2022-08-09T00:49:30.310Z,11.90
2022-08-09T00:51:58.760Z,12.00
2022-08-09T00:54:36.034Z,12.00
2022-08-09T00:57:10.325Z,11.90
2022-08-09T00:59:46.478Z,11.80
2022-08-09T01:02:29.950Z,11.80
2022-08-09T01:05:50.785Z,11.90
2022-08-09T01:08:26.751Z,11.80
2022-08-09T01:11:08.660Z,11.40
2022-08-09T01:13:59.029Z,11.10
2022-08-09T01:16:33.019Z,10.90
2022-08-09T01:19:17.172Z,10.90
2022-08-09T01:22:16.897Z,11.10
2022-08-09T01:24:54.007Z,11.30
2022-08-09T01:27:24.543Z,11.20
2022-08-09T01:29:58.901Z,11.20
2022-08-09T01:32:38.940Z,11.10
2022-08-09T01:35:29.065Z,11.30
2022-08-09T01:38:07.772Z,11.40
2022-08-09T01:40:42.933Z,11.40
2022-08-09T01:43:11.563Z,11.30
2022-08-09T01:45:44.633Z,11.10
2022-08-09T01:48:16.396Z,10.80
2022-08-09T01:50:48.410Z,10.80
2022-08-09T01:53:19.976Z,10.80
2022-08-09T01:55:49.800Z,10.80
2022-08-09T01:58:18.488Z,10.60
2022-08-09T02:00:53.203Z,10.50
2022-08-09T02:03:21.592Z,10.80
2022-08-09T02:06:04.061Z,10.90
2022-08-09T02:08:57.363Z,10.90
2022-08-09T02:11:42.621Z,10.80
2022-08-09T02:14:16.009Z,11.00
2022-08-09T02:17:00.109Z,10.80
2022-08-09T02:19:43.458Z,10.80
2022-08-09T02:22:19.062Z,10.40
2022-08-09T02:24:58.638Z,10.20
2022-08-09T02:27:57.486Z,9.90
2022-08-09T02:30:16.166Z,9.90
2022-08-09T02:32:47.525Z,9.80
2022-08-09T02:35:28.787Z,9.90
2022-08-09T02:38:11.299Z,10.00
2022-08-09T02:40:49.548Z,10.20
2022-08-09T02:43:19.196Z,10.10
2022-08-09T02:45:49.619Z,10.10
2022-08-09T02:48:29.777Z,10.20
2022-08-09T02:51:02.421Z,10.30
2022-08-09T02:53:43.120Z,10.40
2022-08-09T02:56:21.434Z,10.50
2022-08-09T02:58:50.314Z,10.50
2022-08-09T03:01:29.171Z,10.30
2022-08-09T03:04:17.980Z,10.10
2022-08-09T03:06:48.954Z,10.10
2022-08-09T03:09:17.208Z,10.00
2022-08-09T03:12:05.838Z,10.10
2022-08-09T03:14:32.875Z,9.80
2022-08-09T03:17:01.687Z,9.80
2022-08-09T03:19:59.588Z,9.60
2022-08-09T03:22:25.494Z,9.60
2022-08-09T03:25:06.736Z,9.80
2022-08-09T03:27:50.718Z,9.90
2022-08-09T03:30:29.556Z,9.70
2022-08-09T03:33:12.718Z,9.70
2022-08-09T03:36:11.087Z,9.60
2022-08-09T03:38:28.710Z,9.40
2022-08-09T03:40:57.910Z,9.50
2022-08-09T03:43:25.090Z,9.60
2022-08-09T03:46:04.341Z,9.60
2022-08-09T03:48:51.802Z,9.60
2022-08-09T03:51:57.534Z,9.40
2022-08-09T03:54:10.842Z,9.40
2022-08-09T03:56:41.029Z,9.40
2022-08-09T03:59:17.230Z,9.50
2022-08-09T04:01:59.197Z,9.70
2022-08-09T04:04:36.265Z,9.80
2022-08-09T04:07:06.126Z,9.80
2022-08-09T04:09:47.758Z,9.60
2022-08-09T04:12:35.724Z,9.50
2022-08-09T04:15:17.230Z,9.60
2022-08-09T04:17:50.907Z,9.70
2022-08-09T04:20:18.799Z,9.80
2022-08-09T04:22:46.463Z,9.90
2022-08-09T04:25:13.290Z,10.00
2022-08-09T04:27:46.767Z,9.90
2022-08-09T04:30:20.874Z,9.80
2022-08-09T04:32:51.525Z,9.60
2022-08-09T04:35:21.887Z,9.70
2022-08-09T04:37:49.658Z,9.70
2022-08-09T04:40:18.956Z,9.70
2022-08-09T04:42:48.514Z,9.80
2022-08-09T04:45:16.631Z,9.90
2022-08-09T04:48:01.010Z,10.10
2022-08-09T04:50:33.632Z,10.20
2022-08-09T04:53:13.581Z,10.30
2022-08-09T04:55:57.864Z,10.50
2022-08-09T04:58:31.694Z,10.60
2022-08-09T05:01:00.383Z,10.80
2022-08-09T05:03:40.169Z,10.80
2022-08-09T05:06:12.060Z,10.80
2022-08-09T05:08:52.670Z,10.90
2022-08-09T05:11:30.647Z,11.00
2022-08-09T05:14:05.716Z,11.20
2022-08-09T05:16:58.071Z,11.40
2022-08-09T05:19:25.981Z,11.50
2022-08-09T05:21:58.972Z,11.70
2022-08-09T05:24:27.207Z,11.80
2022-08-09T05:26:54.905Z,11.90
2022-08-09T05:29:24.085Z,11.90
2022-08-09T05:32:00.426Z,12.20
2022-08-09T05:34:31.055Z,12.30
2022-08-09T05:37:05.263Z,12.40
2022-08-09T05:39:36.533Z,12.60
2022-08-09T05:42:18.024Z,12.70
2022-08-09T05:44:50.938Z,12.80
2022-08-09T05:47:23.048Z,12.90
2022-08-09T05:50:28.091Z,13.00
2022-08-09T05:52:42.863Z,13.20
2022-08-09T05:55:20.669Z,13.40
2022-08-09T05:57:50.750Z,13.50
2022-08-09T06:00:30.379Z,13.70
2022-08-09T06:03:03.478Z,13.90
2022-08-09T06:05:57.422Z,14.00
2022-08-09T06:08:24.709Z,14.20
2022-08-09T06:10:56.325Z,14.40
2022-08-09T06:13:25.592Z,14.60
2022-08-09T06:15:55.373Z,14.70
2022-08-09T06:18:23.940Z,14.90
2022-08-09T06:20:54.722Z,15.00
2022-08-09T06:23:57.777Z,15.30
2022-08-09T06:26:12.564Z,15.30
2022-08-09T06:28:40.143Z,15.50
2022-08-09T06:31:10.518Z,15.70
2022-08-09T06:33:40.899Z,15.80
2022-08-09T06:36:09.548Z,16.00
2022-08-09T06:38:47.914Z,16.20
2022-08-09T06:41:19.048Z,16.30
2022-08-09T06:43:47.982Z,16.50
2022-08-09T06:46:39.944Z,16.70
2022-08-09T06:49:02.589Z,16.80
2022-08-09T06:51:29.423Z,16.90
2022-08-09T06:54:00.975Z,17.00
2022-08-09T06:56:30.988Z,17.20
2022-08-09T07:00:48.642Z,17.30
2022-08-09T07:01:54.526Z,17.40
2022-08-09T07:04:25.093Z,17.50
2022-08-09T07:06:59.940Z,17.60
2022-08-09T07:09:55.954Z,17.80
2022-08-09T07:12:18.658Z,17.90
2022-08-09T07:14:51.286Z,18.20
2022-08-09T07:17:21.592Z,18.30
2022-08-09T07:19:50.912Z,18.40
2022-08-09T07:22:34.782Z,18.50
2022-08-09T07:25:09.698Z,18.70
2022-08-09T07:27:43.094Z,19.00
2022-08-09T07:30:21.705Z,19.10
2022-08-09T07:32:52.108Z,19.30
2022-08-09T07:35:19.406Z,19.40
2022-08-09T07:37:49.207Z,19.60
2022-08-09T07:40:20.491Z,19.70
2022-08-09T07:42:59.364Z,19.90
2022-08-09T07:45:39.128Z,20.10
2022-08-09T07:48:22.472Z,20.30
2022-08-09T07:51:08.978Z,20.40
2022-08-09T07:54:04.428Z,20.60
2022-08-09T07:56:31.899Z,20.80
2022-08-09T07:58:59.484Z,21.10
2022-08-09T08:01:32.946Z,21.20
2022-08-09T08:04:00.435Z,21.30
2022-08-09T08:06:31.985Z,21.40
2022-08-09T08:09:04.448Z,21.50
2022-08-09T08:12:11.503Z,21.60
2022-08-09T08:14:21.071Z,21.70
2022-08-09T08:16:51.239Z,21.90
2022-08-09T08:19:34.280Z,22.00
2022-08-09T08:22:02.244Z,22.30
2022-08-09T08:24:35.446Z,22.40
2022-08-09T08:27:16.517Z,22.60
2022-08-09T08:29:45.238Z,22.70
2022-08-09T08:32:18.899Z,22.70
2022-08-09T08:34:51.983Z,23.00
2022-08-09T08:37:22.035Z,23.10
2022-08-09T08:39:52.023Z,23.30
2022-08-09T08:42:19.116Z,23.30
2022-08-09T08:45:00.502Z,23.30
2022-08-09T08:47:42.853Z,23.40
2022-08-09T08:50:17.911Z,23.60
2022-08-09T08:52:59.449Z,23.60
2022-08-09T08:55:28.347Z,23.70
2022-08-09T08:57:59.155Z,23.90
2022-08-09T09:00:30.194Z,24.00
2022-08-09T09:03:11.727Z,24.10
2022-08-09T09:06:00.417Z,24.30
2022-08-09T09:08:42.499Z,24.30
2022-08-09T09:11:17.181Z,24.50
2022-08-09T09:13:56.790Z,24.30
2022-08-09T09:16:35.111Z,24.30
2022-08-09T09:19:37.665Z,24.20
2022-08-09T09:22:07.574Z,24.30
2022-08-09T09:24:38.200Z,24.40
2022-08-09T09:27:08.693Z,24.40
2022-08-09T09:30:10.571Z,24.40
2022-08-09T09:32:34.450Z,24.40
2022-08-09T09:35:09.593Z,24.50
2022-08-09T09:37:40.666Z,24.60
2022-08-09T09:40:09.183Z,24.70
2022-08-09T09:42:36.282Z,24.80
2022-08-09T09:45:08.413Z,24.90
2022-08-09T09:47:47.762Z,24.90
2022-08-09T09:50:49.351Z,25.00
2022-08-09T09:53:21.262Z,24.90
2022-08-09T09:55:57.702Z,24.90
2022-08-09T09:58:48.113Z,25.10
2022-08-09T10:01:37.359Z,25.30
2022-08-09T10:04:15.863Z,25.40
2022-08-09T10:06:47.204Z,25.50
2022-08-09T10:09:22.564Z,25.60
2022-08-09T10:12:12.172Z,25.70
2022-08-09T10:14:49.915Z,25.60
2022-08-09T10:17:51.466Z,25.90
2022-08-09T10:20:27.806Z,25.90
2022-08-09T10:23:19.934Z,25.90
2022-08-09T10:26:07.678Z,25.90
2022-08-09T10:28:37.623Z,26.10
2022-08-09T10:34:11.258Z,26.50
2022-08-09T10:36:42.165Z,26.70
2022-08-09T10:39:15.905Z,26.60
2022-08-09T10:41:45.894Z,26.40
2022-08-09T10:44:18.265Z,26.50
2022-08-09T10:48:20.157Z,26.80
2022-08-09T10:50:49.063Z,27.00
2022-08-09T10:53:54.593Z,26.80
2022-08-09T10:56:30.836Z,26.80
2022-08-09T10:58:58.888Z,26.70
2022-08-09T11:03:15.571Z,26.90
2022-08-09T11:04:30.067Z,27.00
2022-08-09T11:07:00.205Z,27.10
2022-08-09T11:09:47.517Z,27.20
2022-08-09T11:12:26.580Z,27.30
2022-08-09T11:14:57.674Z,27.40
2022-08-09T11:17:24.479Z,27.60
2022-08-09T11:20:10.600Z,27.40
2022-08-09T11:22:44.951Z,27.50
2022-08-09T11:25:12.538Z,27.70
2022-08-09T11:28:05.077Z,27.80
2022-08-09T11:30:36.756Z,27.70
2022-08-09T11:33:08.063Z,27.80
2022-08-09T11:35:56.774Z,28.10
2022-08-09T11:38:34.116Z,28.20
2022-08-09T11:41:37.642Z,28.30
2022-08-09T11:44:05.662Z,28.30
2022-08-09T11:46:56.881Z,28.60
2022-08-09T11:50:52.531Z,28.90
2022-08-09T11:53:21.146Z,29.10
2022-08-09T11:55:52.613Z,29.10
2022-08-09T11:58:30.325Z,28.60
2022-08-09T12:01:15.638Z,28.70
2022-08-09T12:04:00.802Z,28.80
2022-08-09T12:06:32.842Z,29.20
2022-08-09T12:09:15.222Z,29.30
2022-08-09T12:12:02.594Z,29.30
2022-08-09T12:14:36.853Z,29.20
2022-08-09T12:17:27.661Z,29.40
2022-08-09T12:20:02.518Z,29.50
2022-08-09T12:22:31.856Z,29.30
2022-08-09T12:25:35.673Z,29.30
2022-08-09T12:29:14.151Z,29.50
2022-08-09T12:32:02.507Z,29.90
2022-08-09T12:34:33.015Z,30.40
2022-08-09T12:37:22.327Z,30.60
2022-08-09T12:40:09.562Z,30.60
2022-08-09T12:42:43.011Z,30.70
2022-08-09T12:45:34.733Z,30.30
2022-08-09T12:47:57.564Z,31.00
2022-08-09T12:50:25.104Z,30.40
2022-08-09T12:53:09.526Z,31.20
2022-08-09T12:56:12.334Z,31.50
2022-08-09T12:58:27.879Z,30.80
2022-08-09T13:00:56.292Z,29.70
2022-08-09T13:03:53.579Z,29.30
2022-08-09T13:06:43.615Z,29.80
2022-08-09T13:09:30.550Z,31.20
2022-08-09T13:12:03.278Z,31.80
2022-08-09T13:14:42.348Z,32.10
2022-08-09T13:17:44.518Z,31.80
2022-08-09T13:20:16.229Z,31.80
2022-08-09T13:23:02.191Z,31.40
2022-08-09T13:25:55.089Z,30.90
2022-08-09T13:28:33.827Z,31.00
2022-08-09T13:32:14.404Z,29.90
2022-08-09T13:33:58.012Z,30.10
2022-08-09T13:36:42.224Z,31.40
2022-08-09T13:41:54.898Z,32.00
2022-08-09T13:42:12.019Z,33.30
2022-08-09T13:44:42.599Z,34.10
2022-08-09T13:47:26.486Z,34.20
2022-08-09T13:50:18.141Z,32.90
2022-08-09T13:52:55.945Z,31.50
2022-08-09T13:55:23.188Z,30.20
2022-08-09T13:57:53.019Z,31.00
2022-08-09T14:00:28.603Z,32.90
2022-08-09T14:03:03.543Z,34.20
2022-08-09T14:05:56.691Z,34.90
2022-08-09T14:08:30.167Z,35.30
2022-08-09T14:10:57.980Z,34.60
2022-08-09T14:13:27.900Z,33.60
2022-08-09T14:16:17.790Z,32.10
2022-08-09T14:18:51.722Z,30.10
2022-08-09T14:21:22.651Z,29.50
2022-08-09T14:23:56.645Z,30.80
2022-08-09T14:26:32.692Z,32.00
2022-08-09T14:29:03.141Z,32.90
2022-08-09T14:31:49.615Z,34.10
2022-08-09T14:34:31.761Z,34.80
2022-08-09T14:37:06.772Z,35.30
2022-08-09T14:39:40.281Z,35.40
2022-08-09T14:42:31.670Z,33.20
2022-08-09T14:46:54.751Z,30.70
2022-08-09T14:47:58.755Z,31.50
2022-08-09T14:50:32.975Z,32.50
2022-08-09T14:53:02.814Z,34.00
2022-08-09T14:55:32.714Z,34.60
2022-08-09T14:58:03.081Z,35.10
2022-08-09T15:00:32.071Z,35.50
2022-08-09T15:03:01.506Z,35.70
2022-08-09T15:05:28.402Z,34.10
2022-08-09T15:07:58.158Z,33.80
2022-08-09T15:10:26.806Z,34.30
2022-08-09T15:12:54.724Z,34.30
2022-08-09T15:15:22.424Z,35.50
2022-08-09T15:17:52.879Z,35.50
2022-08-09T15:21:55.662Z,36.20
2022-08-09T15:24:01.309Z,35.50
2022-08-09T15:25:58.230Z,35.30
2022-08-09T15:28:27.803Z,35.40
2022-08-09T15:31:10.289Z,34.30
2022-08-09T15:34:15.345Z,33.10
2022-08-09T15:36:30.356Z,31.20
2022-08-09T15:39:00.688Z,30.20
2022-08-09T15:41:31.508Z,30.10
2022-08-09T15:44:00.383Z,31.80
2022-08-09T15:46:33.428Z,32.30
2022-08-09T15:49:22.014Z,32.70
2022-08-09T15:52:05.032Z,33.20
2022-08-09T15:54:44.692Z,31.90
2022-08-09T15:57:14.107Z,29.80
2022-08-09T15:59:48.872Z,28.80
2022-08-09T16:02:19.220Z,28.40
2022-08-09T16:04:54.364Z,28.10
2022-08-09T16:07:21.145Z,27.90
2022-08-09T16:09:57.564Z,28.00
2022-08-09T16:12:32.843Z,29.50
2022-08-09T16:15:00.652Z,30.60
2022-08-09T16:17:28.679Z,31.20
2022-08-09T16:20:04.634Z,31.40
2022-08-09T16:22:42.382Z,31.20
2022-08-09T16:25:15.883Z,31.10
2022-08-09T16:27:42.702Z,30.90
2022-08-09T16:30:15.038Z,30.90
2022-08-09T16:33:11.378Z,31.20
2022-08-09T16:35:57.556Z,31.50
2022-08-09T16:38:27.931Z,31.80
2022-08-09T16:40:56.811Z,32.70
2022-08-09T16:43:24.737Z,33.40
2022-08-09T16:45:54.109Z,32.70
2022-08-09T16:48:42.405Z,32.90
2022-08-09T16:51:13.810Z,32.90
2022-08-09T16:56:33.883Z,31.70
2022-08-09T16:59:06.771Z,31.50
2022-08-09T17:01:37.945Z,30.90
2022-08-09T17:04:06.761Z,29.90
2022-08-09T17:07:09.228Z,29.10
2022-08-09T17:09:45.686Z,28.50
2022-08-09T17:12:09.028Z,28.30
2022-08-09T17:14:35.804Z,28.00
2022-08-09T17:17:04.064Z,27.90
2022-08-09T17:20:29.311Z,27.70
2022-08-09T17:22:50.156Z,27.40
2022-08-09T17:25:20.371Z,27.30
2022-08-09T17:27:54.141Z,27.20
2022-08-09T17:30:28.006Z,27.10
2022-08-09T17:33:01.355Z,27.10
2022-08-09T17:35:35.005Z,26.70
2022-08-09T17:38:14.380Z,26.40
2022-08-09T17:40:49.541Z,26.30
2022-08-09T17:43:33.954Z,26.30
2022-08-09T17:46:06.662Z,26.10
2022-08-09T17:48:38.552Z,25.90
2022-08-09T17:51:09.975Z,25.80
2022-08-09T17:53:52.130Z,25.90
2022-08-09T17:56:27.469Z,25.90
2022-08-09T17:58:57.018Z,25.80
2022-08-09T18:01:24.042Z,25.70
2022-08-09T18:03:54.261Z,25.50
2022-08-09T18:06:31.861Z,25.50
2022-08-09T18:09:03.390Z,25.40
2022-08-09T18:11:47.154Z,25.30
2022-08-09T18:14:22.457Z,25.20
2022-08-09T18:16:49.950Z,25.10
2022-08-09T18:20:57.099Z,25.10
2022-08-09T18:22:05.713Z,24.80
2022-08-09T18:24:40.198Z,24.80
2022-08-09T18:27:10.067Z,24.60
2022-08-09T18:30:42.420Z,24.50
2022-08-09T18:32:29.780Z,24.30
2022-08-09T18:34:56.603Z,24.20
2022-08-09T18:37:47.590Z,24.00
2022-08-09T18:40:12.496Z,24.00
2022-08-09T18:42:39.387Z,23.80
2022-08-09T18:45:11.126Z,23.60
2022-08-09T18:47:58.637Z,23.40
2022-08-09T18:50:25.883Z,23.30
2022-08-09T18:53:01.134Z,23.20
2022-08-09T18:55:45.329Z,23.10
2022-08-09T18:58:31.769Z,23.10
2022-08-09T19:00:59.518Z,22.90
2022-08-09T19:03:27.392Z,22.80
2022-08-09T19:06:03.545Z,22.70
2022-08-09T19:08:31.975Z,22.60
2022-08-09T19:10:58.932Z,22.50
2022-08-09T19:13:37.974Z,22.40
2022-08-09T19:16:07.135Z,22.40
2022-08-09T19:18:39.847Z,22.30
2022-08-09T19:21:10.813Z,22.00
2022-08-09T19:24:33.390Z,21.50
2022-08-09T19:26:31.493Z,21.30
2022-08-09T19:29:15.766Z,21.00
2022-08-09T19:31:49.425Z,20.80
2022-08-09T19:34:22.768Z,20.70
2022-08-09T19:36:55.685Z,20.40
2022-08-09T19:39:43.760Z,20.30
2022-08-09T19:42:15.148Z,20.10
2022-08-09T19:44:50.569Z,19.60
2022-08-09T19:47:23.754Z,19.20
2022-08-09T19:50:08.840Z,18.80
2022-08-09T19:52:51.324Z,18.70
2022-08-09T19:55:25.603Z,18.60
2022-08-09T19:57:57.775Z,18.70
2022-08-09T20:00:24.612Z,18.70
2022-08-09T20:04:11.491Z,18.70
2022-08-09T20:05:46.806Z,18.70
2022-08-09T20:08:33.331Z,18.60
2022-08-09T20:11:04.552Z,18.50
2022-08-09T20:13:37.026Z,18.40
2022-08-09T20:16:34.684Z,18.30
2022-08-09T20:19:42.196Z,18.10
2022-08-09T20:21:56.332Z,18.00
2022-08-09T20:24:29.654Z,18.10
2022-08-09T20:27:01.185Z,18.10
2022-08-09T20:29:36.947Z,18.20
2022-08-09T20:32:29.949Z,18.20
2022-08-09T20:34:58.813Z,18.10
2022-08-09T20:37:25.919Z,18.00
2022-08-09T20:40:19.005Z,17.80
2022-08-09T20:42:59.864Z,17.80
2022-08-09T20:46:00.704Z,17.60
2022-08-09T20:48:28.961Z,17.40
2022-08-09T20:51:03.089Z,17.20
2022-08-09T20:53:36.460Z,17.10
2022-08-09T20:56:20.494Z,16.90
2022-08-09T20:58:57.760Z,16.90
2022-08-09T21:01:34.321Z,16.60
2022-08-09T21:05:56.201Z,16.50
2022-08-09T21:07:12.938Z,16.60
2022-08-09T21:09:56.275Z,16.30
2022-08-09T21:12:32.286Z,16.30
2022-08-09T21:15:23.324Z,16.10
2022-08-09T21:18:22.312Z,16.10
2022-08-09T21:20:37.658Z,16.10
2022-08-09T21:23:09.162Z,16.00
2022-08-09T21:25:55.559Z,16.00
2022-08-09T21:28:34.634Z,15.90
2022-08-09T21:31:16.680Z,15.90
2022-08-09T21:33:50.779Z,15.90
2022-08-09T21:36:27.775Z,15.80
2022-08-09T21:38:57.602Z,15.60
2022-08-09T21:42:06.019Z,15.30
2022-08-09T21:44:34.625Z,15.20
2022-08-09T21:47:07.660Z,15.10
2022-08-09T21:49:43.040Z,15.10
2022-08-09T21:52:17.595Z,15.10
2022-08-09T21:55:04.916Z,15.20
2022-08-09T21:57:39.287Z,15.30
2022-08-09T22:00:32.169Z,15.30
2022-08-09T22:03:04.455Z,15.30
2022-08-09T22:05:36.736Z,15.20
2022-08-09T22:08:12.854Z,15.20
2022-08-09T22:11:00.809Z,14.90
2022-08-09T22:13:34.165Z,14.70
2022-08-09T22:16:03.602Z,14.50
2022-08-09T22:18:32.998Z,14.40
2022-08-09T22:21:00.884Z,14.30
2022-08-09T22:23:35.688Z,14.20
2022-08-09T22:26:23.521Z,14.20
2022-08-09T22:29:06.836Z,14.30
2022-08-09T22:31:35.609Z,14.40
2022-08-09T22:34:03.393Z,14.30
2022-08-09T22:36:37.324Z,14.30
2022-08-09T22:39:46.700Z,14.30
2022-08-09T22:42:02.966Z,14.20
2022-08-09T22:44:32.774Z,14.00
2022-08-09T22:48:14.264Z,13.80
2022-08-09T22:49:47.694Z,13.80
2022-08-09T22:52:19.681Z,13.80
2022-08-09T22:54:47.453Z,13.80
2022-08-09T22:57:14.578Z,13.80
2022-08-09T22:59:55.400Z,13.80
2022-08-09T23:02:23.395Z,13.90
2022-08-09T23:04:53.950Z,13.80
2022-08-09T23:08:27.826Z,13.60
2022-08-09T23:10:29.315Z,13.50
2022-08-09T23:12:56.477Z,13.30
2022-08-09T23:15:23.417Z,13.30
2022-08-09T23:17:50.231Z,13.30
2022-08-09T23:20:17.043Z,13.30
2022-08-09T23:22:43.789Z,13.10
2022-08-09T23:25:11.027Z,13.00
2022-08-09T23:28:00.605Z,13.00
2022-08-09T23:30:24.606Z,12.80
2022-08-09T23:32:51.417Z,12.60
2022-08-09T23:35:18.205Z,12.50
2022-08-09T23:37:44.959Z,12.40
2022-08-09T23:40:12.328Z,12.40
2022-08-09T23:42:39.176Z,12.30
2022-08-09T23:45:08.893Z,12.50
2022-08-09T23:47:36.590Z,12.70
2022-08-09T23:50:04.589Z,12.80
2022-08-09T23:52:31.893Z,12.90
2022-08-09T23:54:59.996Z,12.90
2022-08-09T23:57:27.207Z,12.90
